Time;durP1;ratioP1;P1;durP2;ratioP2;P2;SDS_P1;SDS_P2;PMS_P1;PMS_P2;Temp;Humidity;BMP_temperature;BMP_pressure;BME280_temperature;BME280_humidity;BME280_pressure;Samples;Min_cycle;Max_cycle;Signal;HPM_P1;HPM_P2
2022/08/26 00:01:55;;;;;;;29.17;22.00;;;;;;;;;;5035037;28;20044;-78
2022/08/26 00:04:23;;;;;;;31.75;24.08;;;;;;;;;;5040006;28;21825;-79
2022/08/26 00:06:49;;;;;;;29.73;22.50;;;;;;;;;;5033122;28;20025;-78
2022/08/26 00:09:15;;;;;;;28.98;22.55;;;;;;;;;;5036101;28;20532;-79
2022/08/26 00:11:42;;;;;;;26.70;22.02;;;;;;;;;;5034715;28;20029;-79
2022/08/26 00:14:08;;;;;;;31.98;23.60;;;;;;;;;;5041658;28;20025;-79
2022/08/26 00:16:34;;;;;;;25.75;22.55;;;;;;;;;;5035089;28;20032;-79
2022/08/26 00:19:00;;;;;;;28.95;22.95;;;;;;;;;;5034634;28;20055;-80
2022/08/26 00:21:26;;;;;;;30.40;23.45;;;;;;;;;;5035732;28;20160;-80
2022/08/26 00:23:53;;;;;;;30.20;23.77;;;;;;;;;;5038164;28;20025;-79
2022/08/26 00:26:19;;;;;;;27.73;23.17;;;564.10;2432.00;;;;;;5035931;28;20022;-80
2022/08/26 00:28:44;;;;;;;27.60;22.27;;;563.90;2432.00;;;;;;5067468;28;20040;-78
2022/08/26 00:31:10;;;;;;;27.45;21.83;;;563.90;2432.00;;;;;;5036184;28;20025;-79
2022/08/26 00:33:37;;;;;;;28.65;24.02;;;563.90;2432.00;;;;;;5035726;28;20378;-77
2022/08/26 00:36:03;;;;;;;34.58;23.15;;;563.80;2432.00;;;;;;5036091;28;20056;-78
2022/08/26 00:38:29;;;;;;;35.53;23.42;;;563.80;2432.00;;;;;;5036140;28;20040;-78
2022/08/26 00:40:56;;;;;;;32.65;24.88;;;;;;;;;;5036716;28;20025;-79
2022/08/26 00:43:24;;;;;;;27.77;22.92;;;;;;;;;;5035283;28;20013;-78
2022/08/26 00:45:50;;;;;;;30.15;22.88;;;;;;;;;;5036040;28;20028;-79
2022/08/26 00:48:18;;;;;;;27.83;24.25;;;;;;;;;;5047584;28;20033;-79
2022/08/26 00:50:49;;;;;;;27.73;22.65;;;;;;;;;;5032739;28;20414;-79
2022/08/26 00:53:21;;;;;;;31.48;23.92;;;;;;;;;;5042950;28;20445;-80
2022/08/26 00:55:57;;;;;;;33.40;23.90;;;;;;;;;;5036726;28;20080;-79
2022/08/26 00:58:25;;;;;;;26.55;23.23;;;;;;;;;;5037082;28;20028;-79
2022/08/26 01:00:51;;;;;;;28.10;22.90;;;;;;;;;;5047010;28;20084;-79
2022/08/26 01:03:18;;;;;;;30.73;23.38;;;;;;;;;;5033027;28;20108;-78
2022/08/26 01:05:45;;;;;;;28.02;23.15;;;;;;;;;;5037695;28;20053;-80
2022/08/26 01:08:11;;;;;;;25.63;22.92;;;;;;;;;;5037799;28;20538;-78
2022/08/26 01:10:37;;;;;;;28.65;23.73;;;;;;;;;;5037664;28;20100;-78
2022/08/26 01:13:08;;;;;;;34.80;25.27;;;;;;;;;;5040787;28;20026;-77
2022/08/26 01:15:36;;;;;;;28.95;23.55;;;;;;;;;;5036354;28;20021;-79
2022/08/26 01:18:04;;;;;;;29.85;24.05;;;;;;;;;;5036292;28;20029;-80
2022/08/26 01:20:39;;;;;;;35.63;23.88;;;;;;;;;;5035390;28;20038;-78
2022/08/26 01:23:07;;;;;;;27.40;23.83;;;;;;;;;;5040489;28;20420;-79
2022/08/26 01:25:34;;;;;;;30.38;24.05;;;;;;;;;;5052112;28;20056;-79
2022/08/26 01:28:02;;;;;;;27.83;24.58;;;;;;;;;;5047408;28;20021;-79
2022/08/26 01:30:30;;;;;;;27.98;22.88;;;;;;;;;;5033891;28;20486;-80
2022/08/26 01:32:57;;;;;;;27.45;23.25;;;;;;;;;;5033679;28;20021;-79
2022/08/26 01:35:23;;;;;;;29.95;23.85;;;;;;;;;;5036522;28;20482;-79
2022/08/26 01:37:51;;;;;;;33.75;25.52;;;;;;;;;;5034942;28;20493;-79
2022/08/26 01:40:19;;;;;;;27.88;22.63;;;;;;;;;;5043557;28;20038;-79
2022/08/26 01:42:47;;;;;;;28.58;23.98;;;;;;;;;;5039331;28;20037;-80
2022/08/26 01:45:17;;;;;;;29.08;25.05;;;;;;;;;;5035509;28;20026;-80
2022/08/26 01:47:44;;;;;;;30.23;23.90;;;;;;;;;;5033575;28;20025;-80
2022/08/26 01:50:12;;;;;;;32.08;24.08;;;;;;;;;;5034256;28;20029;-80
2022/08/26 01:52:40;;;;;;;27.25;23.98;;;;;;;;;;5031427;28;20483;-80
2022/08/26 01:55:07;;;;;;;28.27;23.55;;;;;;;;;;5034361;28;20490;-79
2022/08/26 01:57:34;;;;;;;30.10;22.80;;;;;;;;;;5038596;28;20022;-79
2022/08/26 02:00:01;;;;;;;30.08;23.08;;;;;;;;;;5053135;28;20021;-79
2022/08/26 02:02:27;;;;;;;27.58;23.48;;;;;;;;;;5052641;28;20035;-78
2022/08/26 02:04:58;;;;;;;30.98;23.13;;;;;;;;;;5033165;28;20964;-79
2022/08/26 02:07:25;;;;;;;30.13;22.42;;;;;;;;;;5032679;28;20037;-79
2022/08/26 02:09:51;;;;;;;28.38;22.08;;;;;;;;;;5033861;28;20027;-79
2022/08/26 02:12:18;;;;;;;29.20;22.10;;;;;;;;;;5049687;28;20041;-78
2022/08/26 02:14:48;;;;;;;24.67;22.15;;;;;;;;;;5051093;28;20025;-76
2022/08/26 02:17:15;;;;;;;26.20;21.27;;;;;;;;;;5037647;28;20043;-76
2022/08/26 02:19:44;;;;;;;29.90;23.38;;;;;;;;;;5036625;28;20028;-78
2022/08/26 02:22:14;;;;;;;28.00;22.40;;;;;;;;;;5035069;28;20104;-76
2022/08/26 02:24:46;;;;;;;28.95;23.42;;;;;;;;;;5037643;28;20078;-77
2022/08/26 02:27:13;;;;;;;26.02;23.35;;;;;;;;;;5031252;28;20033;-77
2022/08/26 02:29:42;;;;;;;27.85;23.33;;;;;;;;;;5031940;28;20034;-79
2022/08/26 02:32:08;;;;;;;27.65;23.10;;;;;;;;;;5032057;28;20036;-78
2022/08/26 02:34:34;;;;;;;29.25;22.05;;;;;;;;;;5031649;28;20446;-78
2022/08/26 02:37:01;;;;;;;29.02;22.52;;;;;;;;;;5033488;28;20032;-76
2022/08/26 02:39:28;;;;;;;26.70;23.77;;;;;;;;;;5032421;28;20017;-78
2022/08/26 02:41:54;;;;;;;27.60;22.58;;;;;;;;;;5033276;28;20025;-77
2022/08/26 02:44:21;;;;;;;27.55;21.65;;;;;;;;;;5030725;28;20101;-77
2022/08/26 02:46:47;;;;;;;24.63;22.13;;;;;;;;;;5032005;28;20029;-80
2022/08/26 02:49:14;;;;;;;27.08;22.33;;;;;;;;;;5044930;28;20025;-80
2022/08/26 02:51:40;;;;;;;26.58;21.92;;;;;;;;;;5034780;28;20036;-79
2022/08/26 02:54:07;;;;;;;33.20;22.55;;;;;;;;;;5031571;28;20021;-77
2022/08/26 02:56:33;;;;;;;30.80;21.20;;;;;;;;;;5036192;28;20087;-79
2022/08/26 02:58:59;;;;;;;25.17;21.27;;;538.40;2406.40;;;;;;5035586;28;20056;-77
2022/08/26 03:01:31;;;;;;;27.63;21.67;;;538.20;2406.40;;;;;;5031510;28;20548;-78
2022/08/26 03:03:58;;;;;;;29.25;21.80;;;537.90;2406.40;;;;;;5080149;28;20488;-77
2022/08/26 03:06:25;;;;;;;26.67;21.15;;;;;;;;;;5050380;28;20029;-78
2022/08/26 03:08:51;;;;;;;29.48;21.00;;;;;;;;;;5036818;28;20034;-78
2022/08/26 03:11:17;;;;;;;28.77;22.25;;;;;;;;;;5030459;28;20382;-79
2022/08/26 03:13:44;;;;;;;27.77;23.15;;;;;;;;;;5032382;28;20079;-77
2022/08/26 03:16:11;;;;;;;26.45;22.38;;;;;;;;;;5032463;28;20059;-77
2022/08/26 03:18:37;;;;;;;26.90;22.75;;;;;;;;;;5034455;28;20497;-77
2022/08/26 03:21:10;;;;;;;36.50;23.17;;;;;;;;;;5034802;28;20976;-78
2022/08/26 03:23:37;;;;;;;29.88;22.45;;;;;;;;;;5032770;28;21886;-77
2022/08/26 03:26:03;;;;;;;25.52;22.40;;;;;;;;;;5032750;28;20025;-75
2022/08/26 03:28:30;;;;;;;28.50;22.73;;;;;;;;;;5035708;28;20025;-77
2022/08/26 03:30:56;;;;;;;30.73;22.45;;;;;;;;;;5035320;28;20390;-77
2022/08/26 03:33:23;;;;;;;28.92;21.83;;;;;;;;;;5032988;28;20041;-77
2022/08/26 03:35:50;;;;;;;22.80;20.40;;;;;;;;;;5032103;28;20978;-77
2022/08/26 03:38:17;;;;;;;27.73;22.17;;;;;;;;;;5037308;28;20373;-78
2022/08/26 03:40:44;;;;;;;27.98;21.70;;;;;;;;;;5033370;28;20013;-77
2022/08/26 03:43:10;;;;;;;24.10;21.48;;;;;;;;;;5031496;28;20339;-76
2022/08/26 03:45:37;;;;;;;27.35;23.00;;;;;;;;;;5033329;28;20036;-76
2022/08/26 03:48:03;;;;;;;28.08;23.23;;;;;;;;;;5032500;28;20021;-77
2022/08/26 03:50:29;;;;;;;27.55;22.05;;;;;;;;;;5043419;28;20475;-77
2022/08/26 03:52:56;;;;;;;27.08;23.20;;;;;;;;;;5034552;28;20055;-76
2022/08/26 03:55:26;;;;;;;29.17;23.85;;;;;;;;;;5046181;28;20021;-77
2022/08/26 03:57:52;;;;;;;25.48;21.23;;;;;;;;;;5042024;28;20132;-78
2022/08/26 04:00:19;;;;;;;26.90;23.90;;;;;;;;;;5036544;28;20409;-79
2022/08/26 04:02:47;;;;;;;23.75;21.35;;;;;;;;;;5034179;28;20153;-79
2022/08/26 04:05:14;;;;;;;23.70;21.20;;;;;;;;;;5029645;28;21236;-78
2022/08/26 04:07:41;;;;;;;28.92;23.02;;;;;;;;;;5034158;28;20033;-79
2022/08/26 04:10:08;;;;;;;30.73;22.85;;;;;;;;;;5045430;28;20030;-79
2022/08/26 04:12:36;;;;;;;25.05;21.90;;;;;;;;;;5039711;28;20044;-78
2022/08/26 04:15:03;;;;;;;30.33;23.77;;;;;;;;;;5038487;28;20021;-78
2022/08/26 04:17:29;;;;;;;26.98;22.60;;;;;;;;;;5036423;28;20041;-78
2022/08/26 04:19:56;;;;;;;31.92;27.05;;;;;;;;;;5035918;28;20072;-79
2022/08/26 04:22:22;;;;;;;35.65;25.85;;;;;;;;;;5036679;28;20025;-77
2022/08/26 04:24:47;;;;;;;30.73;25.80;;;537.80;2406.40;;;;;;5048081;28;21431;-78
2022/08/26 04:27:14;;;;;;;28.80;24.48;;;;;;;;;;5068669;28;20036;-78
2022/08/26 04:29:40;;;;;;;29.40;23.10;;;;;;;;;;5035248;28;20030;-79
2022/08/26 04:32:07;;;;;;;25.75;22.73;;;;;;;;;;5033161;28;20033;-78
2022/08/26 04:34:34;;;;;;;32.63;25.13;;;;;;;;;;5040586;28;20112;-79
2022/08/26 04:37:00;;;;;;;30.38;23.90;;;;;;;;;;5036670;28;20036;-79
2022/08/26 04:39:27;;;;;;;28.10;22.63;;;;;;;;;;5033223;28;20026;-79
2022/08/26 04:41:53;;;;;;;27.70;23.00;;;;;;;;;;5032368;28;20075;-79
2022/08/26 04:44:20;;;;;;;30.70;22.70;;;;;;;;;;5036613;28;20025;-79
2022/08/26 04:46:46;;;;;;;34.40;25.05;;;;;;;;;;5037821;28;20029;-78
2022/08/26 04:49:12;;;;;;;29.85;24.38;;;;;;;;;;5040283;28;20040;-78
2022/08/26 04:51:39;;;;;;;34.60;25.25;;;;;;;;;;5053467;28;20112;-78
2022/08/26 04:54:06;;;;;;;36.92;24.10;;;;;;;;;;5046577;28;20540;-77
2022/08/26 04:56:34;;;;;;;32.45;24.13;;;;;;;;;;5036902;28;20030;-78
2022/08/26 04:59:00;;;;;;;30.33;22.98;;;;;;;;;;5037210;28;20563;-79
2022/08/26 05:01:27;;;;;;;32.30;23.58;;;;;;;;;;5034221;28;20493;-79
2022/08/26 05:03:53;;;;;;;33.63;22.02;;;;;;;;;;5034838;28;20026;-79
2022/08/26 05:06:20;;;;;;;32.58;23.17;;;;;;;;;;5043514;28;20013;-77
2022/08/26 05:08:46;;;;;;;35.90;23.95;;;;;;;;;;5037208;28;20390;-78
2022/08/26 05:11:12;;;;;;;29.88;23.38;;;;;;;;;;5034977;28;20054;-79
2022/08/26 05:13:39;;;;;;;28.48;23.65;;;;;;;;;;5037780;28;20034;-78
2022/08/26 05:16:06;;;;;;;31.70;23.02;;;;;;;;;;5033278;28;20032;-78
2022/08/26 05:18:33;;;;;;;33.30;24.60;;;;;;;;;;5034431;28;20033;-78
2022/08/26 05:21:01;;;;;;;31.58;23.17;;;;;;;;;;5037802;28;20486;-79
2022/08/26 05:23:27;;;;;;;31.70;24.58;;;;;;;;;;5035482;28;20025;-78
2022/08/26 05:25:54;;;;;;;30.30;24.08;;;;;;;;;;5034528;28;20047;-79
2022/08/26 05:28:21;;;;;;;29.23;25.40;;;;;;;;;;5033014;28;20029;-77
2022/08/26 05:30:48;;;;;;;29.90;24.95;;;;;;;;;;5037485;28;20100;-79
2022/08/26 05:33:15;;;;;;;28.73;24.33;;;;;;;;;;5035842;28;20025;-78
2022/08/26 05:35:42;;;;;;;29.95;24.30;;;;;;;;;;5033346;28;20045;-79
2022/08/26 05:38:10;;;;;;;30.58;25.20;;;;;;;;;;5034270;28;20032;-79
2022/08/26 05:40:39;;;;;;;37.60;25.17;;;;;;;;;;5033384;28;20053;-79
2022/08/26 05:43:09;;;;;;;35.38;24.15;;;;;;;;;;5033203;28;20025;-78
2022/08/26 05:45:39;;;;;;;30.90;26.10;;;;;;;;;;5034426;28;20029;-78
2022/08/26 05:48:06;;;;;;;34.75;28.17;;;;;;;;;;5037840;28;20021;-78
2022/08/26 05:50:36;;;;;;;35.17;26.80;;;;;;;;;;5033846;28;20036;-79
2022/08/26 05:53:02;;;;;;;33.72;28.38;;;;;;;;;;5036066;28;20360;-78
2022/08/26 05:55:28;;;;;;;34.88;27.20;;;;;;;;;;5033421;28;20030;-79
2022/08/26 05:57:54;;;;;;;37.20;28.83;;;;;;;;;;5033417;28;20467;-79
2022/08/26 06:00:21;;;;;;;33.78;28.75;;;;;;;;;;5037318;28;20028;-78
2022/08/26 06:02:47;;;;;;;39.33;28.50;;;;;;;;;;5034203;28;20091;-78
2022/08/26 06:05:13;;;;;;;41.58;28.63;;;;;;;;;;5038740;28;20588;-79
2022/08/26 06:10:24;;;;;;;38.58;29.02;;;;;;;;;;5035001;28;20040;-77
2022/08/26 06:12:50;;;;;;;36.03;27.60;;;;;;;;;;5034761;28;20021;-78
2022/08/26 06:15:16;;;;;;;33.05;27.83;;;;;;;;;;5033363;28;20514;-77
2022/08/26 06:17:42;;;;;;;30.63;25.95;;;;;;;;;;5034353;28;20079;-78
2022/08/26 06:20:09;;;;;;;35.03;28.58;;;;;;;;;;5031616;28;20034;-78
2022/08/26 06:25:40;;;;;;;35.17;27.33;;;;;;;;;;5033896;28;20033;-78
2022/08/26 06:28:07;;;;;;;35.28;28.20;;;;;;;;;;5032103;28;20392;-78
2022/08/26 06:30:38;;;;;;;39.78;28.70;;;;;;;;;;5038773;28;20047;-78
2022/08/26 06:33:04;;;;;;;33.13;27.83;;;;;;;;;;5034575;28;20017;-79
2022/08/26 06:35:30;;;;;;;31.70;27.17;;;;;;;;;;5034926;28;20132;-80
2022/08/26 06:37:56;;;;;;;33.90;26.70;;;;;;;;;;5034131;28;20031;-80
2022/08/26 06:40:22;;;;;;;36.08;27.67;;;;;;;;;;5038209;28;20022;-79
2022/08/26 06:42:49;;;;;;;31.92;26.75;;;;;;;;;;5035323;28;20068;-77
2022/08/26 06:45:15;;;;;;;31.10;27.08;;;;;;;;;;5038470;28;20021;-77
2022/08/26 06:47:41;;;;;;;35.85;25.90;;;;;;;;;;5037485;28;20068;-78
2022/08/26 06:50:07;;;;;;;33.15;26.63;;;;;;;;;;5035256;28;20026;-79
2022/08/26 06:52:33;;;;;;;32.35;25.40;;;;;;;;;;5034619;28;20486;-78
2022/08/26 06:54:59;;;;;;;31.77;22.50;;;;;;;;;;5036166;28;20025;-78
2022/08/26 06:57:26;;;;;;;37.85;25.02;;;;;;;;;;5031334;28;20037;-78
2022/08/26 06:59:52;;;;;;;31.20;24.15;;;;;;;;;;5032982;28;20374;-77
2022/08/26 07:02:19;;;;;;;28.10;24.98;;;;;;;;;;5033838;28;20033;-79
2022/08/26 07:04:45;;;;;;;33.05;25.13;;;;;;;;;;5035239;28;20482;-78
2022/08/26 07:07:14;;;;;;;30.65;24.95;;;;;;;;;;5034182;28;20029;-78
2022/08/26 07:09:41;;;;;;;29.30;25.17;;;;;;;;;;5032603;28;20029;-79
2022/08/26 07:12:08;;;;;;;27.70;24.42;;;;;;;;;;5031117;28;20029;-80
2022/08/26 07:14:34;;;;;;;31.67;23.30;;;;;;;;;;5040967;28;20379;-80
2022/08/26 07:17:00;;;;;;;27.35;24.00;;;615.10;2432.00;;;;;;5033667;28;20437;-80
2022/08/26 07:19:26;;;;;;;32.05;23.58;;;614.90;2432.00;;;;;;5069599;28;20036;-80
2022/08/26 07:21:52;;;;;;;33.65;25.90;;;614.90;2432.00;;;;;;5034527;28;20025;-81
2022/08/26 07:24:18;;;;;;;32.13;25.05;;;;;;;;;;5069497;28;20026;-83
2022/08/26 07:26:44;;;;;;;26.88;23.98;;;;;;;;;;5048849;28;20025;-82
2022/08/26 07:29:11;;;;;;;28.15;22.65;;;;;;;;;;5035748;28;20072;-84
2022/08/26 07:31:37;;;;;;;32.22;25.33;;;;;;;;;;5031617;28;20021;-84
2022/08/26 07:34:05;;;;;;;31.38;23.33;;;;;;;;;;5037258;28;20475;-82
2022/08/26 07:36:31;;;;;;;25.73;21.80;;;;;;;;;;5038402;28;20112;-83
2022/08/26 07:38:57;;;;;;;32.97;22.15;;;;;;;;;;5035547;28;20021;-83
2022/08/26 07:41:25;;;;;;;30.30;21.80;;;;;;;;;;5044657;28;20124;-82
2022/08/26 07:43:51;;;;;;;28.63;22.25;;;;;;;;;;5039960;28;20360;-83
2022/08/26 07:46:18;;;;;;;31.55;21.90;;;;;;;;;;5039455;28;20021;-81
2022/08/26 07:48:48;;;;;;;33.08;22.33;;;;;;;;;;5045698;28;20029;-80
2022/08/26 07:51:17;;;;;;;31.98;21.92;;;640.90;2432.00;;;;;;5054866;28;20028;-81
2022/08/26 07:53:43;;;;;;;30.10;22.10;;;665.60;2432.00;;;;;;5050790;28;20031;-81
2022/08/26 07:56:10;;;;;;;28.27;21.33;;;;;;;;;;5071203;28;20029;-82
2022/08/26 07:58:36;;;;;;;26.25;21.02;;;;;;;;;;5042357;28;20029;-81
2022/08/26 08:01:02;;;;;;;32.25;21.50;;;;;;;;;;5036575;28;20044;-81
2022/08/26 08:03:29;;;;;;;35.63;22.27;;;;;;;;;;5037998;28;20101;-81
2022/08/26 08:05:55;;;;;;;27.75;20.65;;;;;;;;;;5039095;28;20033;-84
2022/08/26 08:08:21;;;;;;;26.58;21.17;;;691.20;2432.00;;;;;;5040762;28;20041;-80
2022/08/26 08:10:47;;;;;;;28.23;20.95;;;691.20;2432.00;;;;;;5041542;28;20033;-77
2022/08/26 08:13:13;;;;;;;26.50;20.08;;;;;;;;;;5075740;28;20120;-80
2022/08/26 08:15:39;;;;;;;25.45;20.45;;;;;;;;;;5042454;28;20100;-81
2022/08/26 08:18:06;;;;;;;26.13;20.52;;;691.30;2432.00;;;;;;5051082;28;20033;-80
2022/08/26 08:20:32;;;;;;;22.15;19.83;;;691.50;2432.00;;;;;;5050644;28;20036;-79
2022/08/26 08:23:01;;;;;;;24.30;19.17;;;691.50;2432.00;;;;;;5037444;28;20033;-81
2022/08/26 08:25:28;;;;;;;27.85;20.20;;;691.40;2432.00;;;;;;5041900;28;20033;-81
2022/08/26 08:27:54;;;;;;;26.98;17.58;;;;;;;;;;5071697;28;20383;-82
2022/08/26 08:30:21;;;;;;;25.90;19.88;;;691.70;2432.00;;;;;;5042636;28;20382;-83
2022/08/26 08:32:47;;;;;;;27.08;20.35;;;691.90;2432.00;;;;;;5044815;28;20135;-80
2022/08/26 08:35:15;;;;;;;24.67;18.98;;;691.50;2432.00;;;;;;5037415;28;20141;-79
2022/08/26 08:37:42;;;;;;;26.58;17.33;;;716.80;2432.00;;;;;;5071093;28;20043;-82
2022/08/26 08:40:09;;;;;;;24.27;17.60;;;;;;;;;;5069892;28;20037;-79
2022/08/26 08:42:35;;;;;;;38.75;22.10;;;;;;;;;;5042638;28;20033;-80
2022/08/26 08:45:14;;;;;;;30.00;19.48;;;;;;;;;;5040043;28;20024;-82
2022/08/26 08:47:42;;;;;;;22.10;16.33;;;;;;;;;;5045557;28;20123;-79
2022/08/26 08:50:16;;;;;;;30.92;18.70;;;;;;;;;;5050543;28;20032;-81
2022/08/26 08:52:44;;;;;;;23.73;18.20;;;;;;;;;;5046795;28;20108;-80
2022/08/26 08:55:13;;;;;;;27.30;19.23;;;;;;;;;;5044690;28;20021;-78
2022/08/26 08:58:01;;;;;;;22.77;18.02;;;717.60;2432.00;;;;;;5043608;28;20036;-82
2022/08/26 09:00:36;;;;;;;22.48;17.40;;;717.60;2432.00;;;;;;5058071;28;20490;-79
2022/08/26 09:03:23;;;;;;;22.95;17.20;;;742.40;2432.00;;;;;;5041368;28;20053;-80
2022/08/26 09:05:50;;;;;;;20.40;17.85;;;;;;;;;;5040187;28;20386;-79
2022/08/26 09:08:22;;;;;;;24.70;16.85;;;;;;;;;;5036453;28;20068;-79
2022/08/26 09:10:51;;;;;;;23.20;16.85;;;;;;;;;;5045350;28;20056;-79
2022/08/26 09:13:19;;;;;;;18.33;16.45;;;;;;;;;;5039727;28;20029;-81
2022/08/26 09:16:07;;;;;;;20.90;15.98;;;;;;;;;;5050046;28;20052;-81
2022/08/26 09:18:48;;;;;;;22.48;14.82;;;;;;;;;;5048121;28;20106;-81
2022/08/26 09:21:15;;;;;;;21.27;14.75;;;;;;;;;;5049730;28;20386;-81
2022/08/26 09:23:42;;;;;;;24.48;13.85;;;;;;;;;;5046282;28;20485;-81
2022/08/26 09:26:25;;;;;;;22.65;14.13;;;;;;;;;;5048512;28;20028;-78
2022/08/26 09:29:03;;;;;;;15.85;13.93;;;;;;;;;;5047394;28;20022;-79
2022/08/26 09:31:29;;;;;;;22.90;15.07;;;;;;;;;;5047568;28;20037;-79
2022/08/26 09:34:05;;;;;;;26.98;14.40;;;;;;;;;;5041499;28;20048;-82
2022/08/26 09:36:37;;;;;;;17.90;13.25;;;;;;;;;;5039781;28;20053;-80
2022/08/26 09:39:10;;;;;;;18.23;12.02;;;743.10;2432.00;;;;;;5042299;28;20108;-82
2022/08/26 09:41:36;;;;;;;13.50;10.90;;;743.10;2432.00;;;;;;5036643;28;20154;-81
2022/08/26 09:44:15;;;;;;;17.30;12.57;;;743.00;2432.00;;;;;;5069566;28;20032;-80
2022/08/26 09:47:08;;;;;;;18.58;10.77;;;743.10;2432.00;;;;;;5037757;28;20032;-82
2022/08/26 09:49:39;;;;;;;21.40;11.57;;;768.00;2432.00;;;;;;5033575;28;20073;-80
2022/08/26 09:52:10;;;;;;;26.20;11.65;;;743.30;2432.00;;;;;;5043269;28;20026;-81
2022/08/26 09:54:37;;;;;;;17.25;11.52;;;;;;;;;;5036126;28;20025;-80
2022/08/26 09:57:11;;;;;;;18.10;11.93;;;;;;;;;;5035298;28;20025;-80
2022/08/26 09:59:38;;;;;;;19.65;11.15;;;;;;;;;;5041697;28;20377;-81
2022/08/26 10:02:16;;;;;;;25.52;10.40;;;;;;;;;;5033660;28;20040;-82
2022/08/26 10:04:52;;;;;;;16.63;11.57;;;768.90;2432.00;;;;;;5046709;28;20104;-81
2022/08/26 10:07:34;;;;;;;19.55;11.30;;;;;;;;;;5046225;28;20050;-81
2022/08/26 10:10:02;;;;;;;19.52;10.63;;;;;;;;;;5046372;28;20025;-82
2022/08/26 10:12:29;;;;;;;16.83;11.20;;;;;;;;;;5043396;28;20066;-83
2022/08/26 10:15:00;;;;;;;16.38;11.75;;;793.70;2432.00;;;;;;5038926;28;20017;-79
2022/08/26 10:18:12;;;;;;;18.27;10.02;;;793.70;2432.00;;;;;;5041222;28;20063;-81
2022/08/26 10:20:50;;;;;;;22.58;11.02;;;794.20;2432.00;;;;;;5038679;28;20187;-80
2022/08/26 10:23:20;;;;;;;19.90;12.05;;;794.00;2432.00;;;;;;5038300;28;20059;-83
2022/08/26 10:25:50;;;;;;;15.55;10.60;;;819.20;2432.00;;;;;;5067607;28;20037;-81
2022/08/26 10:28:29;;;;;;;17.48;11.27;;;819.30;2432.00;;;;;;5035402;28;20094;-80
2022/08/26 10:31:03;;;;;;;17.10;10.57;;;819.40;2406.40;;;;;;5034337;28;20033;-81
2022/08/26 10:33:30;;;;;;;16.50;9.82;;;819.80;2304.00;;;;;;5034009;28;20061;-80
2022/08/26 10:36:04;;;;;;;16.77;8.90;;;820.00;2278.40;;;;;;5039009;28;20048;-80
2022/08/26 10:38:39;;;;;;;14.63;9.10;;;844.80;2278.40;;;;;;5033142;28;20121;-80
2022/08/26 10:41:19;;;;;;;18.33;10.38;;;845.00;2227.20;;;;;;5071134;28;20025;-79
2022/08/26 10:43:54;;;;;;;16.77;7.72;;;845.00;2176.00;;;;;;5034102;28;20033;-80
2022/08/26 10:46:23;;;;;;;21.00;10.20;;;844.90;2099.20;;;;;;5034768;28;20032;-81
2022/08/26 10:48:57;;;;;;;16.10;8.80;;;845.00;2150.40;;;;;;5036496;28;20029;-80
2022/08/26 10:51:30;;;;;;;17.73;7.65;;;820.00;2124.80;;;;;;5036441;28;20025;-81
2022/08/26 10:54:28;;;;;;;23.42;8.13;;;819.60;2150.40;;;;;;5042287;28;20028;-82
2022/08/26 10:57:26;;;;;;;19.60;7.53;;;819.70;2176.00;;;;;;5037674;28;20022;-81
2022/08/26 11:03:28;;;;;;;10.90;5.75;;;845.10;1971.20;;;;;;5040570;28;20028;-79
2022/08/26 11:06:20;;;;;;;14.57;7.07;;;845.00;1945.60;;;;;;5037452;28;20520;-81
2022/08/26 11:08:49;;;;;;;22.67;10.93;;;845.20;1971.20;;;;;;5068676;28;20083;-81
2022/08/26 11:11:44;;;;;;;18.38;8.98;;;845.40;1971.20;;;;;;5041414;28;20037;-79
2022/08/26 11:14:19;;;;;;;19.23;6.05;;;;;;;;;;5041661;28;20029;-80
2022/08/26 11:16:52;;;;;;;14.45;7.38;;;;;;;;;;5038610;28;20029;-80
2022/08/26 11:19:38;;;;;;;14.80;8.52;;;;;;;;;;5038127;28;20025;-79
2022/08/26 11:22:36;;;;;;;14.30;8.82;;;870.80;1868.80;;;;;;5041770;28;20021;-80
2022/08/26 11:25:08;;;;;;;15.98;7.22;;;870.50;1894.40;;;;;;5043543;28;20029;-83
2022/08/26 11:27:34;;;;;;;;;;;845.70;1868.80;;;;;;5046724;28;20055;-82
2022/08/26 11:30:02;;;;;;;16.75;9.32;;;845.70;1868.80;;;;;;5040244;28;19920;-80
2022/08/26 11:32:34;;;;;;;12.85;6.75;;;870.60;1894.40;;;;;;5044838;28;20132;-79
2022/08/26 11:35:04;;;;;;;18.23;8.43;;;870.90;1920.00;;;;;;5041758;28;20045;-80
2022/08/26 11:37:39;;;;;;;19.38;7.45;;;;;;;;;;5045940;28;20128;-81
2022/08/26 11:40:12;;;;;;;13.13;6.15;;;871.20;1868.80;;;;;;5047026;28;20017;-81
2022/08/26 11:42:45;;;;;;;14.40;5.85;;;871.10;1766.40;;;;;;5077947;28;20040;-81
2022/08/26 11:45:26;;;;;;;19.33;6.95;;;870.60;1766.40;;;;;;5074266;28;20070;-81
2022/08/26 11:47:53;;;;;;;11.15;5.45;;;870.80;1817.60;;;;;;5047286;28;20025;-82
2022/08/26 11:50:26;;;;;;;18.35;7.55;;;870.80;1792.00;;;;;;5048581;28;20069;-80
2022/08/26 11:53:03;;;;;;;15.23;6.65;;;871.00;1740.80;;;;;;5040035;28;20489;-81
2022/08/26 11:55:31;;;;;;;11.95;5.78;;;870.90;1817.60;;;;;;5041425;28;20116;-81
2022/08/26 11:57:59;;;;;;;16.98;6.18;;;870.70;1740.80;;;;;;5047722;28;20067;-81
2022/08/26 12:00:47;;;;;;;13.63;6.15;;;870.40;1766.40;;;;;;5061354;28;20514;-82
2022/08/26 12:03:36;;;;;;;17.08;6.32;;;870.50;1740.80;;;;;;5052981;28;20038;-81
2022/08/26 12:06:10;;;;;;;17.63;5.97;;;870.40;1740.80;;;;;;5053093;28;20025;-81
2022/08/26 12:08:42;;;;;;;13.90;7.07;;;870.90;1766.40;;;;;;5043916;28;20119;-81
2022/08/26 12:11:12;;;;;;;13.57;7.90;;;870.40;1792.00;;;;;;5040814;28;20032;-82
2022/08/26 12:13:39;;;;;;;14.30;6.43;;;870.40;1817.60;;;;;;5044987;28;20028;-84
2022/08/26 12:16:06;;;;;;;13.70;6.75;;;845.50;1868.80;;;;;;5044879;28;20032;-80
2022/08/26 12:18:35;;;;;;;13.60;6.20;;;845.40;1843.20;;;;;;5048242;28;20113;-82
2022/08/26 12:21:13;;;;;;;16.35;5.63;;;845.60;1843.20;;;;;;5057735;28;20422;-81
2022/08/26 12:23:48;;;;;;;12.88;5.72;;;870.40;1766.40;;;;;;5052820;28;20029;-81
2022/08/26 12:26:25;;;;;;;14.23;7.75;;;845.70;1740.80;;;;;;5069594;28;20039;-82
2022/08/26 12:28:57;;;;;;;17.58;6.93;;;845.70;1817.60;;;;;;5052054;28;20461;-82
2022/08/26 12:31:27;;;;;;;9.48;5.95;;;845.50;1817.60;;;;;;5057440;28;20040;-81
2022/08/26 12:33:55;;;;;;;17.10;5.80;;;845.50;1817.60;;;;;;5064924;28;20032;-83
2022/08/26 12:36:40;;;;;;;17.02;6.22;;;845.20;1792.00;;;;;;5061928;28;20049;-82
2022/08/26 12:39:11;;;;;;;16.20;6.70;;;845.70;1843.20;;;;;;5054037;28;20029;-83
2022/08/26 12:41:45;;;;;;;21.27;6.15;;;870.60;1792.00;;;;;;5052015;28;20029;-82
2022/08/26 12:44:35;;;;;;;13.52;5.43;;;870.90;1766.40;;;;;;5044265;28;20089;-81
2022/08/26 12:47:10;;;;;;;14.10;4.70;;;871.00;1740.80;;;;;;5048084;28;20059;-81
2022/08/26 12:49:38;;;;;;;13.60;6.18;;;871.20;1715.20;;;;;;5043361;28;20076;-82
2022/08/26 12:52:07;;;;;;;12.20;4.78;;;896.20;1689.60;;;;;;5081998;28;20036;-81
2022/08/26 12:57:26;;;;;;;18.58;6.13;;;896.30;1689.60;;;;;;5047036;28;20496;-80
2022/08/26 12:59:52;;;;;;;14.32;5.30;;;896.10;1638.40;;;;;;5048849;28;20082;-80
2022/08/26 13:02:34;;;;;;;12.32;4.50;;;896.00;1638.40;;;;;;5040239;28;20116;-80
2022/08/26 13:05:00;;;;;;;14.90;5.18;;;896.20;1664.00;;;;;;5045175;28;20029;-81
2022/08/26 13:07:26;;;;;;;13.90;5.05;;;896.50;1740.80;;;;;;5038231;28;20036;-81
2022/08/26 13:09:55;;;;;;;16.33;4.85;;;896.50;1689.60;;;;;;5037853;28;20140;-80
2022/08/26 13:12:31;;;;;;;13.90;4.90;;;896.40;1638.40;;;;;;5047945;28;20052;-82
2022/08/26 13:14:58;;;;;;;18.58;5.45;;;896.70;1612.80;;;;;;5071164;28;20459;-81
2022/08/26 13:17:26;;;;;;;17.45;4.60;;;896.60;1638.40;;;;;;5047784;28;20091;-83
2022/08/26 13:19:52;;;;;;;13.43;4.78;;;896.90;1638.40;;;;;;5040246;28;20394;-83
2022/08/26 13:22:22;;;;;;;24.02;8.43;;;896.80;1612.80;;;;;;5044134;28;20036;-81
2022/08/26 13:24:53;;;;;;;16.15;6.90;;;921.60;1664.00;;;;;;5038914;28;20037;-84
2022/08/26 13:27:20;;;;;;;10.48;6.60;;;921.80;1664.00;;;;;;5043160;28;20449;-83
2022/08/26 13:29:47;;;;;;;11.85;4.53;;;922.00;1638.40;;;;;;5041312;28;20120;-81
2022/08/26 13:32:13;;;;;;;16.38;5.38;;;921.90;1612.80;;;;;;5042857;28;20033;-79
2022/08/26 13:34:39;;;;;;;12.27;4.85;;;896.90;1587.20;;;;;;5047205;28;20512;-80
2022/08/26 13:37:05;;;;;;;14.10;4.50;;;921.70;1664.00;;;;;;5052317;28;20036;-81
2022/08/26 13:39:31;;;;;;;15.25;4.60;;;896.80;1612.80;;;;;;5049683;28;20488;-83
2022/08/26 13:41:58;;;;;;;14.85;6.03;;;896.90;1612.80;;;;;;5047705;28;20021;-83
2022/08/26 13:44:24;;;;;;;11.05;5.50;;;896.90;1638.40;;;;;;5051153;28;20029;-81
2022/08/26 13:46:50;;;;;;;17.27;5.70;;;921.70;1664.00;;;;;;5045859;28;20036;-82
2022/08/26 13:49:16;;;;;;;14.63;5.18;;;921.60;1638.40;;;;;;5045724;28;20457;-81
2022/08/26 13:51:42;;;;;;;17.30;4.68;;;921.70;1715.20;;;;;;5046559;28;20029;-82